createdAt,value
2018-12-16T00:01:19.001Z,100.00
2018-12-16T00:03:48.236Z,100.00
2018-12-16T00:06:17.348Z,100.00
2018-12-16T00:08:44.449Z,100.00
2018-12-16T00:11:11.943Z,100.00
2018-12-16T00:13:39.052Z,100.00
2018-12-16T00:16:06.103Z,100.00
2018-12-16T00:18:33.217Z,100.00
2018-12-16T00:21:00.495Z,100.00
2018-12-16T00:23:27.519Z,100.00
2018-12-16T00:25:54.573Z,100.00
2018-12-16T00:28:21.878Z,100.00
2018-12-16T00:30:48.909Z,100.00
2018-12-16T00:33:15.991Z,100.00
2018-12-16T00:35:43.089Z,100.00
2018-12-16T00:38:10.244Z,100.00
2018-12-16T00:40:37.657Z,100.00
2018-12-16T00:43:05.187Z,100.00
2018-12-16T00:45:32.197Z,100.00
2018-12-16T00:47:59.231Z,100.00
2018-12-16T00:50:26.422Z,100.00
2018-12-16T00:52:53.514Z,100.00
2018-12-16T00:55:20.922Z,100.00
2018-12-16T00:57:48.012Z,100.00
2018-12-16T01:00:15.657Z,100.00
2018-12-16T01:02:43.394Z,100.00
2018-12-16T01:05:10.810Z,100.00
2018-12-16T01:07:38.273Z,100.00
2018-12-16T01:10:05.566Z,100.00
2018-12-16T01:12:33.290Z,100.00
2018-12-16T01:15:00.674Z,100.00
2018-12-16T01:17:27.703Z,100.00
2018-12-16T01:19:55.191Z,100.00
2018-12-16T01:22:22.221Z,100.00
2018-12-16T01:24:49.255Z,100.00
2018-12-16T01:27:16.398Z,100.00
2018-12-16T01:29:43.615Z,100.00
2018-12-16T01:32:10.653Z,100.00
2018-12-16T01:34:38.191Z,100.00
2018-12-16T01:37:05.665Z,100.00
2018-12-16T01:39:32.730Z,100.00
2018-12-16T01:42:00.154Z,100.00
2018-12-16T01:44:27.189Z,100.00
2018-12-16T01:46:54.604Z,100.00
2018-12-16T01:49:21.656Z,100.00
2018-12-16T01:51:48.681Z,100.00
2018-12-16T01:54:15.698Z,100.00
2018-12-16T01:56:42.794Z,100.00
2018-12-16T01:59:09.918Z,100.00
2018-12-16T02:04:21.953Z,100.00
2018-12-16T02:06:49.079Z,100.00
2018-12-16T02:09:16.712Z,100.00
2018-12-16T02:11:43.756Z,100.00
2018-12-16T02:14:10.893Z,100.00
2018-12-16T02:16:38.309Z,100.00
2018-12-16T02:19:06.085Z,100.00
2018-12-16T02:21:33.228Z,100.00
2018-12-16T02:24:00.353Z,100.00
2018-12-16T02:26:27.486Z,100.00
2018-12-16T02:28:54.533Z,100.00
2018-12-16T02:31:22.116Z,100.00
2018-12-16T02:33:49.171Z,100.00
2018-12-16T02:36:16.491Z,100.00
2018-12-16T02:38:43.504Z,100.00
2018-12-16T02:41:11.027Z,100.00
2018-12-16T02:43:38.203Z,100.00
2018-12-16T02:46:05.446Z,100.00
2018-12-16T02:48:32.576Z,100.00
2018-12-16T02:50:59.627Z,100.00
2018-12-16T02:53:27.285Z,100.00
2018-12-16T02:55:54.339Z,100.00
2018-12-16T02:58:21.366Z,100.00
2018-12-16T03:00:48.528Z,100.00
2018-12-16T03:03:15.551Z,100.00
2018-12-16T03:05:43.115Z,100.00
2018-12-16T03:08:10.166Z,100.00
2018-12-16T03:10:37.187Z,100.00
2018-12-16T03:13:04.213Z,100.00
2018-12-16T03:15:31.811Z,100.00
2018-12-16T03:17:58.870Z,100.00
2018-12-16T03:20:26.014Z,100.00
2018-12-16T03:23:00.079Z,100.00
2018-12-16T03:25:27.109Z,100.00
2018-12-16T03:27:54.454Z,100.00
2018-12-16T03:30:23.367Z,100.00
2018-12-16T03:32:50.663Z,100.00
2018-12-16T03:35:17.845Z,100.00
2018-12-16T03:37:45.035Z,100.00
2018-12-16T03:40:12.303Z,100.00
2018-12-16T03:42:39.450Z,100.00
2018-12-16T03:45:06.853Z,100.00
2018-12-16T03:47:34.083Z,100.00
2018-12-16T03:50:01.270Z,100.00
2018-12-16T03:52:28.606Z,100.00
2018-12-16T03:54:55.693Z,100.00
2018-12-16T03:57:22.730Z,100.00
2018-12-16T03:59:50.193Z,100.00
2018-12-16T04:02:17.226Z,100.00
2018-12-16T04:04:44.358Z,100.00
2018-12-16T04:07:11.666Z,100.00
2018-12-16T04:09:38.692Z,100.00
2018-12-16T04:12:06.027Z,100.00
2018-12-16T04:14:33.209Z,100.00
2018-12-16T04:17:00.242Z,100.00
2018-12-16T04:19:27.658Z,100.00
2018-12-16T04:21:55.085Z,100.00
2018-12-16T04:24:22.094Z,100.00
2018-12-16T04:26:49.129Z,100.00
2018-12-16T04:29:16.528Z,100.00
2018-12-16T04:31:43.559Z,100.00
2018-12-16T04:34:10.939Z,100.00
2018-12-16T04:36:38.018Z,100.00
2018-12-16T04:39:05.984Z,100.00
2018-12-16T04:41:35.005Z,100.00
2018-12-16T04:44:02.267Z,100.00
2018-12-16T04:46:29.306Z,100.00
2018-12-16T04:48:56.342Z,98.90
2018-12-16T04:51:23.873Z,98.49
2018-12-16T04:53:50.881Z,98.86
2018-12-16T04:56:17.958Z,98.42
2018-12-16T04:58:45.218Z,98.81
2018-12-16T05:01:12.230Z,99.19
2018-12-16T05:03:39.743Z,98.76
2018-12-16T05:06:07.431Z,99.22
2018-12-16T05:08:34.891Z,99.79
2018-12-16T05:11:02.319Z,98.96
2018-12-16T05:13:30.181Z,98.67
2018-12-16T05:15:58.174Z,98.27
2018-12-16T05:18:25.478Z,98.03
2018-12-16T05:20:52.518Z,98.69
2018-12-16T05:23:19.545Z,98.83
2018-12-16T05:25:46.599Z,98.99
2018-12-16T05:28:13.742Z,99.50
2018-12-16T05:30:41.543Z,98.72
2018-12-16T05:33:08.958Z,98.92
2018-12-16T05:35:35.987Z,98.85
2018-12-16T05:38:04.227Z,98.81
2018-12-16T05:40:31.488Z,97.80
2018-12-16T05:42:58.537Z,98.03
2018-12-16T05:45:25.565Z,98.56
2018-12-16T05:47:52.587Z,97.89
2018-12-16T05:50:20.145Z,98.19
2018-12-16T05:52:47.494Z,97.99
2018-12-16T05:55:14.553Z,97.41
2018-12-16T05:57:41.593Z,96.96
2018-12-16T06:00:08.866Z,97.40
2018-12-16T06:02:35.926Z,97.55
2018-12-16T06:05:03.458Z,98.10
2018-12-16T06:07:30.586Z,98.35
2018-12-16T06:09:57.726Z,97.94
2018-12-16T06:12:24.781Z,97.18
2018-12-16T06:14:51.837Z,97.88
2018-12-16T06:17:18.891Z,98.84
2018-12-16T06:19:46.334Z,98.26
2018-12-16T06:22:13.378Z,98.49
2018-12-16T06:24:41.530Z,98.16
2018-12-16T06:27:09.006Z,97.94
2018-12-16T06:29:36.663Z,98.35
2018-12-16T06:32:03.798Z,98.07
2018-12-16T06:34:31.289Z,97.93
2018-12-16T06:36:58.843Z,98.44
2018-12-16T06:39:25.885Z,97.76
2018-12-16T06:41:52.938Z,98.23
2018-12-16T06:44:19.953Z,99.31
2018-12-16T06:46:47.002Z,98.79
2018-12-16T06:49:14.514Z,98.90
2018-12-16T06:51:41.571Z,99.23
2018-12-16T06:54:08.601Z,99.03
2018-12-16T06:56:35.966Z,99.68
2018-12-16T06:59:03.111Z,98.78
2018-12-16T07:01:30.135Z,98.74
2018-12-16T07:03:57.174Z,99.76
2018-12-16T07:06:24.201Z,100.00
2018-12-16T07:08:51.219Z,100.00
2018-12-16T07:11:19.068Z,99.49
2018-12-16T07:13:46.102Z,99.92
2018-12-16T07:16:13.236Z,100.00
2018-12-16T07:18:40.385Z,100.00
2018-12-16T07:21:07.467Z,100.00
2018-12-16T07:23:34.799Z,100.00
2018-12-16T07:26:01.931Z,100.00
2018-12-16T07:28:29.094Z,100.00
2018-12-16T07:30:56.209Z,100.00
2018-12-16T07:33:23.579Z,100.00
2018-12-16T07:35:50.671Z,100.00
2018-12-16T07:38:17.897Z,100.00
2018-12-16T07:40:45.012Z,100.00
2018-12-16T07:43:12.142Z,100.00
2018-12-16T07:45:39.663Z,100.00
2018-12-16T07:48:06.948Z,100.00
2018-12-16T07:50:34.054Z,100.00
2018-12-16T07:53:01.059Z,100.00
2018-12-16T07:55:28.209Z,100.00
2018-12-16T07:57:55.502Z,100.00
2018-12-16T08:00:22.548Z,100.00
2018-12-16T08:02:49.630Z,100.00
2018-12-16T08:05:16.781Z,100.00
2018-12-16T08:07:44.378Z,100.00
2018-12-16T08:10:11.438Z,100.00
2018-12-16T08:12:38.466Z,100.00
2018-12-16T08:15:06.106Z,100.00
2018-12-16T08:17:33.611Z,100.00
2018-12-16T08:20:01.084Z,100.00
2018-12-16T08:22:28.173Z,100.00
2018-12-16T08:24:55.243Z,100.00
2018-12-16T08:27:22.548Z,96.88
2018-12-16T08:29:49.781Z,95.94
2018-12-16T08:32:16.826Z,97.56
2018-12-16T08:34:44.173Z,95.48
2018-12-16T08:37:11.190Z,94.46
2018-12-16T08:39:38.211Z,93.79
2018-12-16T08:42:05.948Z,92.35
2018-12-16T08:44:32.985Z,91.48
2018-12-16T08:47:00.017Z,91.48
2018-12-16T08:49:27.056Z,91.37
2018-12-16T08:51:54.186Z,92.10
2018-12-16T08:54:21.706Z,90.36
2018-12-16T08:56:49.027Z,89.38
2018-12-16T08:59:16.040Z,89.02
2018-12-16T09:01:43.062Z,88.43
2018-12-16T09:04:11.218Z,86.88
2018-12-16T09:06:38.247Z,88.91
2018-12-16T09:09:07.423Z,87.56
2018-12-16T09:11:36.397Z,85.62
2018-12-16T09:14:03.574Z,86.05
2018-12-16T09:16:30.768Z,85.75
2018-12-16T09:18:57.849Z,87.01
2018-12-16T09:21:25.053Z,85.67
2018-12-16T09:23:52.127Z,82.46
2018-12-16T09:26:19.218Z,83.23
2018-12-16T09:28:46.253Z,85.09
2018-12-16T09:31:13.294Z,84.12
2018-12-16T09:33:40.310Z,84.38
2018-12-16T09:36:07.352Z,81.91
2018-12-16T09:38:34.529Z,82.45
2018-12-16T09:41:01.540Z,81.52
2018-12-16T09:43:28.681Z,81.06
2018-12-16T09:45:56.024Z,81.74
2018-12-16T09:48:23.153Z,80.90
2018-12-16T09:50:50.228Z,80.14
2018-12-16T09:53:17.241Z,81.59
2018-12-16T09:55:44.250Z,79.53
2018-12-16T09:58:11.295Z,80.62
2018-12-16T10:00:38.403Z,81.87
2018-12-16T10:03:05.418Z,78.81
2018-12-16T10:05:32.689Z,77.75
2018-12-16T10:08:06.642Z,78.11
2018-12-16T10:10:33.882Z,76.43
2018-12-16T10:13:00.943Z,78.83
2018-12-16T10:15:29.219Z,79.01
2018-12-16T10:17:56.537Z,79.69
2018-12-16T10:20:23.678Z,77.11
2018-12-16T10:22:51.089Z,79.16
2018-12-16T10:25:18.598Z,80.06
2018-12-16T10:27:45.624Z,79.32
2018-12-16T10:30:12.754Z,78.53
2018-12-16T10:32:39.965Z,78.67
2018-12-16T10:35:07.526Z,77.49
2018-12-16T10:37:34.982Z,77.37
2018-12-16T10:40:02.126Z,74.67
2018-12-16T10:42:30.557Z,77.71
2018-12-16T10:44:58.064Z,77.45
2018-12-16T10:47:25.132Z,78.33
2018-12-16T10:49:52.197Z,78.94
2018-12-16T10:52:19.359Z,80.25
2018-12-16T10:54:47.586Z,80.67
2018-12-16T10:57:14.724Z,80.96
2018-12-16T10:59:41.879Z,81.36
2018-12-16T11:02:09.008Z,81.40
2018-12-16T11:04:36.026Z,82.65
2018-12-16T11:07:03.347Z,80.90
2018-12-16T11:09:30.397Z,80.86
2018-12-16T11:11:57.415Z,81.91
2018-12-16T11:14:24.664Z,81.81
2018-12-16T11:16:51.760Z,80.70
2018-12-16T11:19:19.063Z,81.04
2018-12-16T11:21:46.130Z,81.17
2018-12-16T11:24:13.155Z,81.31
2018-12-16T11:26:40.301Z,82.30
2018-12-16T11:29:07.369Z,83.19
2018-12-16T11:31:34.524Z,82.57
2018-12-16T11:34:01.540Z,82.07
2018-12-16T11:36:28.806Z,80.97
2018-12-16T11:38:55.815Z,80.65
2018-12-16T11:41:23.124Z,81.19
2018-12-16T11:43:50.611Z,82.42
2018-12-16T11:46:17.636Z,81.28
2018-12-16T11:48:44.667Z,82.54
2018-12-16T11:51:11.748Z,81.65
2018-12-16T11:53:39.107Z,81.68
2018-12-16T11:56:06.270Z,80.95
2018-12-16T11:58:33.764Z,80.82
2018-12-16T12:01:01.880Z,79.60
2018-12-16T12:03:30.943Z,80.52
2018-12-16T12:06:00.090Z,79.77
2018-12-16T12:08:27.119Z,80.45
2018-12-16T12:10:54.129Z,80.01
2018-12-16T12:13:21.177Z,81.06
2018-12-16T12:15:48.330Z,80.39
2018-12-16T12:18:15.364Z,79.87
2018-12-16T12:20:42.381Z,80.06
2018-12-16T12:23:09.446Z,79.94
2018-12-16T12:25:36.642Z,79.29
2018-12-16T12:28:04.499Z,78.76
2018-12-16T12:30:31.823Z,79.45
2018-12-16T12:32:58.969Z,79.36
2018-12-16T12:35:25.989Z,80.46
2018-12-16T12:37:53.159Z,81.02
2018-12-16T12:40:20.206Z,80.92
2018-12-16T12:42:47.217Z,80.15
2018-12-16T12:45:14.409Z,81.32
2018-12-16T12:47:42.084Z,81.50
2018-12-16T12:50:09.138Z,80.99
2018-12-16T12:52:36.290Z,81.07
2018-12-16T12:55:04.240Z,81.25
2018-12-16T12:57:31.272Z,81.50
2018-12-16T12:59:59.442Z,82.22
2018-12-16T13:02:26.914Z,81.69
2018-12-16T13:04:53.941Z,81.65
2018-12-16T13:07:20.955Z,83.02
2018-12-16T13:09:48.001Z,82.72
2018-12-16T13:12:15.045Z,82.52
2018-12-16T13:14:42.045Z,83.60
2018-12-16T13:17:09.404Z,83.52
2018-12-16T13:19:36.422Z,83.08
2018-12-16T13:22:03.795Z,82.22
2018-12-16T13:24:30.874Z,82.20
2018-12-16T13:27:04.592Z,81.44
2018-12-16T13:29:31.604Z,81.77
2018-12-16T13:31:58.633Z,81.86
2018-12-16T13:34:26.062Z,82.25
2018-12-16T13:36:53.085Z,82.06
2018-12-16T13:39:20.171Z,82.63
2018-12-16T13:41:47.205Z,82.78
2018-12-16T13:44:14.422Z,82.41
2018-12-16T13:46:41.602Z,82.29
2018-12-16T13:49:09.934Z,83.01
2018-12-16T13:51:36.949Z,83.42
2018-12-16T13:54:04.358Z,83.45
2018-12-16T13:56:31.765Z,83.40
2018-12-16T13:58:59.005Z,82.44
2018-12-16T14:01:32.949Z,83.30
2018-12-16T14:04:00.113Z,84.48
2018-12-16T14:06:27.276Z,84.62
2018-12-16T14:08:54.593Z,83.54
2018-12-16T14:11:21.610Z,86.29
2018-12-16T14:13:48.629Z,86.11
2018-12-16T14:16:15.692Z,83.78
2018-12-16T14:18:42.926Z,83.33
2018-12-16T14:21:09.965Z,84.19
2018-12-16T14:23:37.016Z,82.79
2018-12-16T14:26:04.170Z,84.15
2018-12-16T14:28:31.378Z,84.27
2018-12-16T14:30:58.438Z,83.92
2018-12-16T14:33:25.935Z,83.98
2018-12-16T14:35:53.067Z,84.12
2018-12-16T14:38:20.305Z,84.15
2018-12-16T14:40:47.341Z,83.75
2018-12-16T14:43:14.371Z,84.25
2018-12-16T14:45:41.494Z,84.38
2018-12-16T14:48:08.530Z,83.34
2018-12-16T14:50:35.777Z,84.17
2018-12-16T14:53:02.818Z,83.32
2018-12-16T14:55:29.956Z,83.64
2018-12-16T14:57:57.118Z,82.69
2018-12-16T15:00:24.137Z,83.67
2018-12-16T15:02:51.494Z,84.18
2018-12-16T15:05:21.623Z,85.12
2018-12-16T15:07:48.638Z,85.17
2018-12-16T15:10:15.821Z,86.69
2018-12-16T15:12:42.937Z,88.10
2018-12-16T15:15:10.704Z,84.86
2018-12-16T15:17:42.692Z,85.41
2018-12-16T15:20:07.657Z,86.28
2018-12-16T15:22:34.914Z,86.46
2018-12-16T15:25:02.073Z,86.07
2018-12-16T15:27:29.191Z,86.19
2018-12-16T15:29:56.217Z,87.14
2018-12-16T15:32:23.259Z,87.78
2018-12-16T15:34:51.013Z,87.29
2018-12-16T15:37:18.339Z,87.40
2018-12-16T15:39:45.394Z,88.15
2018-12-16T15:42:13.025Z,88.16
2018-12-16T15:44:40.158Z,85.80
2018-12-16T15:47:07.237Z,82.94
2018-12-16T15:49:34.275Z,86.92
2018-12-16T15:52:01.420Z,89.62
2018-12-16T15:54:28.559Z,90.05
2018-12-16T15:56:55.693Z,91.11
2018-12-16T15:59:22.928Z,91.52
2018-12-16T16:01:50.334Z,91.49
2018-12-16T16:04:17.417Z,91.94
2018-12-16T16:06:44.546Z,92.63
2018-12-16T16:09:11.758Z,92.67
2018-12-16T16:11:39.043Z,93.33
2018-12-16T16:14:06.188Z,93.61
2018-12-16T16:16:33.219Z,93.69
2018-12-16T16:19:01.356Z,94.09
2018-12-16T16:21:29.314Z,93.81
2018-12-16T16:23:56.551Z,94.89
2018-12-16T16:26:23.575Z,94.85
2018-12-16T16:28:50.590Z,96.15
2018-12-16T16:31:17.750Z,96.12
2018-12-16T16:33:45.156Z,95.40
2018-12-16T16:36:12.275Z,96.04
2018-12-16T16:38:39.325Z,97.03
2018-12-16T16:41:06.466Z,97.45
2018-12-16T16:43:33.850Z,98.04
2018-12-16T16:46:01.062Z,97.49
2018-12-16T16:48:28.202Z,97.59
2018-12-16T16:50:55.339Z,97.38
2018-12-16T16:53:22.929Z,97.19
2018-12-16T16:55:50.693Z,99.31
2018-12-16T16:58:17.734Z,99.76
2018-12-16T17:00:44.785Z,98.98
2018-12-16T17:03:11.804Z,97.95
2018-12-16T17:05:39.135Z,97.90
2018-12-16T17:08:06.178Z,98.95
2018-12-16T17:10:33.213Z,99.95
2018-12-16T17:13:00.261Z,98.77
2018-12-16T17:15:27.322Z,99.40
2018-12-16T17:17:54.395Z,99.16
2018-12-16T17:20:21.446Z,99.48
2018-12-16T17:22:48.676Z,100.00
2018-12-16T17:25:15.700Z,99.64
2018-12-16T17:27:42.933Z,99.68
2018-12-16T17:30:10.549Z,99.42
2018-12-16T17:32:38.793Z,99.85
2018-12-16T17:35:06.087Z,99.86
2018-12-16T17:37:33.429Z,99.05
2018-12-16T17:40:00.926Z,98.75
2018-12-16T17:42:28.118Z,98.18
2018-12-16T17:44:55.257Z,99.11
2018-12-16T17:47:22.437Z,99.39
2018-12-16T17:49:49.472Z,100.00
2018-12-16T17:52:16.716Z,99.84
2018-12-16T17:54:44.765Z,98.99
2018-12-16T17:57:12.095Z,98.83
2018-12-16T17:59:40.470Z,98.03
2018-12-16T18:02:07.526Z,98.84
2018-12-16T18:04:34.831Z,99.62
2018-12-16T18:07:02.137Z,100.00
2018-12-16T18:09:29.381Z,100.00
2018-12-16T18:11:56.637Z,100.00
2018-12-16T18:14:24.081Z,100.00
2018-12-16T18:16:51.202Z,100.00
2018-12-16T18:19:18.214Z,100.00
2018-12-16T18:21:45.256Z,100.00
2018-12-16T18:24:12.383Z,100.00
2018-12-16T18:26:44.019Z,100.00
2018-12-16T18:29:08.553Z,100.00
2018-12-16T18:31:35.760Z,100.00
2018-12-16T18:34:02.908Z,100.00
2018-12-16T18:36:30.582Z,100.00
2018-12-16T18:38:57.702Z,100.00
2018-12-16T18:41:24.745Z,100.00
2018-12-16T18:43:51.941Z,100.00
2018-12-16T18:46:18.977Z,100.00
2018-12-16T18:48:46.028Z,100.00
2018-12-16T18:51:13.061Z,100.00
2018-12-16T18:53:40.293Z,99.13
2018-12-16T18:56:07.434Z,97.19
2018-12-16T18:58:35.130Z,100.00
2018-12-16T19:01:02.153Z,100.00
2018-12-16T19:03:30.309Z,100.00
2018-12-16T19:05:57.351Z,100.00
2018-12-16T19:08:24.359Z,100.00
2018-12-16T19:10:51.732Z,100.00
2018-12-16T19:13:18.789Z,100.00
2018-12-16T19:15:45.805Z,100.00
2018-12-16T19:18:12.827Z,98.36
2018-12-16T19:20:40.990Z,96.74
2018-12-16T19:23:08.179Z,92.58
2018-12-16T19:25:35.409Z,90.96
2018-12-16T19:28:02.555Z,90.18
2018-12-16T19:30:29.693Z,88.71
2018-12-16T19:32:57.475Z,89.81
2018-12-16T19:35:24.529Z,83.21
2018-12-16T19:37:51.538Z,83.01
2018-12-16T19:40:18.572Z,91.45
2018-12-16T19:42:45.890Z,96.11
2018-12-16T19:45:13.085Z,98.46
2018-12-16T19:47:40.314Z,100.00
2018-12-16T19:50:08.101Z,100.00
2018-12-16T19:52:35.117Z,100.00
2018-12-16T19:55:03.123Z,100.00
2018-12-16T19:57:30.268Z,100.00
2018-12-16T19:59:57.315Z,100.00
2018-12-16T20:02:24.385Z,100.00
2018-12-16T20:04:57.578Z,100.00
2018-12-16T20:07:24.767Z,100.00
2018-12-16T20:09:51.814Z,100.00
2018-12-16T20:12:20.374Z,100.00
2018-12-16T20:14:54.303Z,100.00
2018-12-16T20:17:21.328Z,100.00
2018-12-16T20:19:48.358Z,100.00
2018-12-16T20:22:15.415Z,100.00
2018-12-16T20:24:42.455Z,100.00
2018-12-16T20:27:12.107Z,100.00
2018-12-16T20:29:40.332Z,100.00
2018-12-16T20:32:07.616Z,100.00
2018-12-16T20:34:34.644Z,100.00
2018-12-16T20:37:01.855Z,100.00
2018-12-16T20:39:29.281Z,100.00
2018-12-16T20:41:56.358Z,100.00
2018-12-16T20:44:23.925Z,100.00
2018-12-16T20:46:51.004Z,100.00
2018-12-16T20:49:18.450Z,100.00
2018-12-16T20:51:45.476Z,100.00
2018-12-16T20:54:12.525Z,100.00
2018-12-16T20:56:39.541Z,100.00
2018-12-16T20:59:06.823Z,100.00
2018-12-16T21:01:34.086Z,100.00
2018-12-16T21:04:01.136Z,100.00
2018-12-16T21:06:28.197Z,100.00
2018-12-16T21:08:56.357Z,100.00
2018-12-16T21:11:29.454Z,100.00
2018-12-16T21:14:02.216Z,100.00
2018-12-16T21:16:35.468Z,100.00
2018-12-16T21:19:02.850Z,100.00
2018-12-16T21:21:30.344Z,100.00
2018-12-16T21:23:57.918Z,100.00
2018-12-16T21:26:25.169Z,100.00
2018-12-16T21:28:52.283Z,100.00
2018-12-16T21:31:19.409Z,100.00
2018-12-16T21:33:46.918Z,100.00
2018-12-16T21:36:13.966Z,100.00
2018-12-16T21:38:41.001Z,100.00
2018-12-16T21:41:08.033Z,100.00
2018-12-16T21:43:35.732Z,100.00
2018-12-16T21:46:02.781Z,100.00
2018-12-16T21:48:29.914Z,100.00
2018-12-16T21:50:57.098Z,100.00
2018-12-16T21:53:25.143Z,100.00
2018-12-16T21:55:52.320Z,100.00
2018-12-16T21:58:19.641Z,100.00
2018-12-16T22:00:46.890Z,100.00
2018-12-16T22:03:14.117Z,100.00
2018-12-16T22:05:41.927Z,100.00
2018-12-16T22:08:09.374Z,100.00
2018-12-16T22:10:36.482Z,100.00
2018-12-16T22:13:03.715Z,100.00
2018-12-16T22:15:30.839Z,100.00
2018-12-16T22:17:57.951Z,100.00
2018-12-16T22:20:25.322Z,100.00
2018-12-16T22:22:52.449Z,100.00
2018-12-16T22:25:19.717Z,100.00
2018-12-16T22:27:47.070Z,100.00
2018-12-16T22:30:14.379Z,100.00
2018-12-16T22:32:41.410Z,100.00
2018-12-16T22:35:08.618Z,100.00
2018-12-16T22:37:35.789Z,100.00
2018-12-16T22:40:04.199Z,100.00
2018-12-16T22:42:31.274Z,100.00
2018-12-16T22:44:58.309Z,100.00
2018-12-16T22:47:25.830Z,100.00
2018-12-16T22:49:52.842Z,100.00
2018-12-16T22:52:20.209Z,100.00
2018-12-16T22:54:47.519Z,100.00
2018-12-16T22:57:14.538Z,100.00
2018-12-16T22:59:41.570Z,100.00
2018-12-16T23:02:08.771Z,100.00
2018-12-16T23:04:35.938Z,100.00
2018-12-16T23:07:03.089Z,100.00
2018-12-16T23:09:30.217Z,100.00
2018-12-16T23:11:57.679Z,100.00
2018-12-16T23:14:24.961Z,100.00
2018-12-16T23:16:52.173Z,100.00
2018-12-16T23:19:19.370Z,100.00
2018-12-16T23:21:46.419Z,100.00
2018-12-16T23:24:15.470Z,100.00
2018-12-16T23:26:44.693Z,100.00
2018-12-16T23:29:13.846Z,100.00
2018-12-16T23:31:42.001Z,100.00
2018-12-16T23:34:11.513Z,100.00
2018-12-16T23:36:41.224Z,100.00
2018-12-16T23:39:10.883Z,100.00
2018-12-16T23:41:39.662Z,100.00
2018-12-16T23:44:11.640Z,100.00
2018-12-16T23:46:39.094Z,100.00
2018-12-16T23:49:06.171Z,100.00
2018-12-16T23:51:33.270Z,100.00
2018-12-16T23:54:00.393Z,100.00
2018-12-16T23:56:27.513Z,100.00
2018-12-16T23:58:54.598Z,100.00
